sensor_id;sensor_type;location;lat;lon;timestamp;P1;durP1;ratioP1;P2;durP2;ratioP2
20865;SDS011;10593;48.398;10.698;2022-09-09T00:01:28;0.70;;;0.70;;
20865;SDS011;10593;48.398;10.698;2022-09-09T00:04:18;1.40;;;0.70;;
20865;SDS011;10593;48.398;10.698;2022-09-09T00:07:03;1.47;;;0.83;;
20865;SDS011;10593;48.398;10.698;2022-09-09T00:10:04;0.53;;;0.53;;
20865;SDS011;10593;48.398;10.698;2022-09-09T00:15:55;1.50;;;0.90;;
20865;SDS011;10593;48.398;10.698;2022-09-09T00:21:17;0.83;;;0.70;;
20865;SDS011;10593;48.398;10.698;2022-09-09T00:26:38;2.67;;;0.97;;
20865;SDS011;10593;48.398;10.698;2022-09-09T00:32:13;2.90;;;1.10;;
20865;SDS011;10593;48.398;10.698;2022-09-09T00:37:20;3.27;;;0.87;;
20865;SDS011;10593;48.398;10.698;2022-09-09T00:39:50;2.37;;;0.67;;
20865;SDS011;10593;48.398;10.698;2022-09-09T00:42:41;2.57;;;0.90;;
20865;SDS011;10593;48.398;10.698;2022-09-09T00:45:35;1.20;;;0.87;;
20865;SDS011;10593;48.398;10.698;2022-09-09T00:48:19;1.17;;;0.77;;
20865;SDS011;10593;48.398;10.698;2022-09-09T00:50:57;2.03;;;1.13;;
20865;SDS011;10593;48.398;10.698;2022-09-09T00:53:38;0.73;;;0.60;;
20865;SDS011;10593;48.398;10.698;2022-09-09T00:56:27;1.50;;;0.80;;
20865;SDS011;10593;48.398;10.698;2022-09-09T01:01:35;0.60;;;0.60;;
20865;SDS011;10593;48.398;10.698;2022-09-09T01:04:01;0.70;;;0.70;;
20865;SDS011;10593;48.398;10.698;2022-09-09T01:06:37;0.87;;;0.87;;
20865;SDS011;10593;48.398;10.698;2022-09-09T01:12:15;2.23;;;0.90;;
20865;SDS011;10593;48.398;10.698;2022-09-09T01:15:10;1.17;;;0.70;;
20865;SDS011;10593;48.398;10.698;2022-09-09T01:20:12;1.23;;;0.83;;
20865;SDS011;10593;48.398;10.698;2022-09-09T01:22:56;2.93;;;1.43;;
20865;SDS011;10593;48.398;10.698;2022-09-09T01:28:55;1.00;;;0.90;;
20865;SDS011;10593;48.398;10.698;2022-09-09T01:31:27;1.83;;;0.70;;
20865;SDS011;10593;48.398;10.698;2022-09-09T01:34:01;0.97;;;0.70;;
20865;SDS011;10593;48.398;10.698;2022-09-09T01:39:16;0.70;;;0.70;;
20865;SDS011;10593;48.398;10.698;2022-09-09T01:41:42;1.10;;;0.63;;
20865;SDS011;10593;48.398;10.698;2022-09-09T01:44:08;0.80;;;0.70;;
20865;SDS011;10593;48.398;10.698;2022-09-09T01:46:35;2.30;;;0.97;;
20865;SDS011;10593;48.398;10.698;2022-09-09T01:49:02;1.30;;;0.70;;
20865;SDS011;10593;48.398;10.698;2022-09-09T01:51:31;0.73;;;0.73;;
20865;SDS011;10593;48.398;10.698;2022-09-09T01:53:59;1.27;;;0.80;;
20865;SDS011;10593;48.398;10.698;2022-09-09T02:04:41;2.80;;;0.60;;
20865;SDS011;10593;48.398;10.698;2022-09-09T02:07:19;0.80;;;0.80;;
20865;SDS011;10593;48.398;10.698;2022-09-09T02:10:10;0.80;;;0.70;;
20865;SDS011;10593;48.398;10.698;2022-09-09T02:12:45;1.97;;;0.90;;
20865;SDS011;10593;48.398;10.698;2022-09-09T02:15:23;1.20;;;0.80;;
20865;SDS011;10593;48.398;10.698;2022-09-09T02:17:59;0.70;;;0.70;;
20865;SDS011;10593;48.398;10.698;2022-09-09T02:20:32;1.73;;;1.00;;
20865;SDS011;10593;48.398;10.698;2022-09-09T02:23:01;0.70;;;0.70;;
20865;SDS011;10593;48.398;10.698;2022-09-09T02:25:29;2.07;;;0.87;;
20865;SDS011;10593;48.398;10.698;2022-09-09T02:27:55;1.03;;;0.57;;
20865;SDS011;10593;48.398;10.698;2022-09-09T02:30:23;1.67;;;1.17;;
20865;SDS011;10593;48.398;10.698;2022-09-09T02:32:50;2.20;;;0.70;;
20865;SDS011;10593;48.398;10.698;2022-09-09T02:35:22;1.90;;;1.00;;
20865;SDS011;10593;48.398;10.698;2022-09-09T02:37:51;0.57;;;0.57;;
20865;SDS011;10593;48.398;10.698;2022-09-09T02:40:24;0.67;;;0.47;;
20865;SDS011;10593;48.398;10.698;2022-09-09T02:42:49;2.83;;;1.10;;
20865;SDS011;10593;48.398;10.698;2022-09-09T02:45:17;2.20;;;0.80;;
20865;SDS011;10593;48.398;10.698;2022-09-09T02:48:03;0.57;;;0.57;;
20865;SDS011;10593;48.398;10.698;2022-09-09T02:54:21;1.97;;;0.70;;
20865;SDS011;10593;48.398;10.698;2022-09-09T02:57:08;1.17;;;0.80;;
20865;SDS011;10593;48.398;10.698;2022-09-09T02:59:42;1.37;;;0.70;;
20865;SDS011;10593;48.398;10.698;2022-09-09T03:02:10;1.70;;;0.90;;
20865;SDS011;10593;48.398;10.698;2022-09-09T03:04:37;2.40;;;0.60;;
20865;SDS011;10593;48.398;10.698;2022-09-09T03:07:04;0.83;;;0.83;;
20865;SDS011;10593;48.398;10.698;2022-09-09T03:09:30;3.23;;;0.87;;
20865;SDS011;10593;48.398;10.698;2022-09-09T03:11:57;1.53;;;0.90;;
20865;SDS011;10593;48.398;10.698;2022-09-09T03:14:24;1.13;;;0.60;;
20865;SDS011;10593;48.398;10.698;2022-09-09T03:16:53;0.73;;;0.73;;
20865;SDS011;10593;48.398;10.698;2022-09-09T03:19:22;7.10;;;1.03;;
20865;SDS011;10593;48.398;10.698;2022-09-09T03:21:49;1.23;;;0.83;;
20865;SDS011;10593;48.398;10.698;2022-09-09T03:24:15;1.63;;;0.60;;
20865;SDS011;10593;48.398;10.698;2022-09-09T03:26:41;0.80;;;0.80;;
20865;SDS011;10593;48.398;10.698;2022-09-09T03:29:09;1.23;;;0.80;;
20865;SDS011;10593;48.398;10.698;2022-09-09T03:31:37;1.23;;;0.80;;
20865;SDS011;10593;48.398;10.698;2022-09-09T03:34:04;0.93;;;0.70;;
20865;SDS011;10593;48.398;10.698;2022-09-09T03:36:30;0.60;;;0.60;;
20865;SDS011;10593;48.398;10.698;2022-09-09T03:38:57;2.23;;;0.80;;
20865;SDS011;10593;48.398;10.698;2022-09-09T03:41:24;2.20;;;1.00;;
20865;SDS011;10593;48.398;10.698;2022-09-09T03:43:50;0.83;;;0.73;;
20865;SDS011;10593;48.398;10.698;2022-09-09T03:46:17;1.67;;;0.77;;
20865;SDS011;10593;48.398;10.698;2022-09-09T03:48:47;0.80;;;0.80;;
20865;SDS011;10593;48.398;10.698;2022-09-09T03:51:13;0.83;;;0.83;;
20865;SDS011;10593;48.398;10.698;2022-09-09T03:53:38;1.40;;;0.60;;
20865;SDS011;10593;48.398;10.698;2022-09-09T03:56:05;1.13;;;0.80;;
20865;SDS011;10593;48.398;10.698;2022-09-09T03:58:32;1.10;;;0.80;;
20865;SDS011;10593;48.398;10.698;2022-09-09T04:01:01;2.10;;;0.80;;
20865;SDS011;10593;48.398;10.698;2022-09-09T04:03:29;1.43;;;1.10;;
20865;SDS011;10593;48.398;10.698;2022-09-09T04:05:56;1.00;;;0.80;;
20865;SDS011;10593;48.398;10.698;2022-09-09T04:08:24;0.73;;;0.73;;
20865;SDS011;10593;48.398;10.698;2022-09-09T04:10:50;1.17;;;0.60;;
20865;SDS011;10593;48.398;10.698;2022-09-09T04:13:17;2.43;;;0.87;;
20865;SDS011;10593;48.398;10.698;2022-09-09T04:15:49;1.50;;;0.60;;
20865;SDS011;10593;48.398;10.698;2022-09-09T04:18:18;1.23;;;0.60;;
20865;SDS011;10593;48.398;10.698;2022-09-09T04:20:46;0.87;;;0.80;;
20865;SDS011;10593;48.398;10.698;2022-09-09T04:23:16;1.17;;;0.90;;
20865;SDS011;10593;48.398;10.698;2022-09-09T04:25:46;1.03;;;0.93;;
20865;SDS011;10593;48.398;10.698;2022-09-09T04:28:14;3.73;;;1.10;;
20865;SDS011;10593;48.398;10.698;2022-09-09T04:30:42;1.13;;;0.90;;
20865;SDS011;10593;48.398;10.698;2022-09-09T04:33:09;1.37;;;0.80;;
20865;SDS011;10593;48.398;10.698;2022-09-09T04:35:36;2.37;;;0.87;;
20865;SDS011;10593;48.398;10.698;2022-09-09T04:38:04;1.60;;;0.80;;
20865;SDS011;10593;48.398;10.698;2022-09-09T04:40:32;2.03;;;0.77;;
20865;SDS011;10593;48.398;10.698;2022-09-09T04:42:58;0.80;;;0.80;;
20865;SDS011;10593;48.398;10.698;2022-09-09T04:45:27;1.03;;;0.73;;
20865;SDS011;10593;48.398;10.698;2022-09-09T04:47:53;2.33;;;0.80;;
20865;SDS011;10593;48.398;10.698;2022-09-09T04:50:18;5.60;;;1.23;;
20865;SDS011;10593;48.398;10.698;2022-09-09T04:52:44;1.37;;;0.90;;
20865;SDS011;10593;48.398;10.698;2022-09-09T04:55:10;1.13;;;0.90;;
20865;SDS011;10593;48.398;10.698;2022-09-09T04:57:37;1.00;;;0.70;;
20865;SDS011;10593;48.398;10.698;2022-09-09T05:00:04;1.47;;;0.90;;
20865;SDS011;10593;48.398;10.698;2022-09-09T05:02:31;0.83;;;0.63;;
20865;SDS011;10593;48.398;10.698;2022-09-09T05:04:57;0.87;;;0.80;;
20865;SDS011;10593;48.398;10.698;2022-09-09T05:07:23;0.97;;;0.97;;
20865;SDS011;10593;48.398;10.698;2022-09-09T05:09:51;2.50;;;1.20;;
20865;SDS011;10593;48.398;10.698;2022-09-09T05:12:16;1.07;;;1.07;;
20865;SDS011;10593;48.398;10.698;2022-09-09T05:14:43;1.77;;;1.03;;
20865;SDS011;10593;48.398;10.698;2022-09-09T05:17:09;3.47;;;1.60;;
20865;SDS011;10593;48.398;10.698;2022-09-09T05:19:35;1.10;;;1.00;;
20865;SDS011;10593;48.398;10.698;2022-09-09T05:22:01;1.10;;;1.00;;
20865;SDS011;10593;48.398;10.698;2022-09-09T05:24:27;4.37;;;1.10;;
20865;SDS011;10593;48.398;10.698;2022-09-09T05:26:53;1.03;;;1.03;;
20865;SDS011;10593;48.398;10.698;2022-09-09T05:29:20;2.00;;;1.00;;
20865;SDS011;10593;48.398;10.698;2022-09-09T05:31:46;1.00;;;1.00;;
20865;SDS011;10593;48.398;10.698;2022-09-09T05:34:12;0.90;;;0.90;;
20865;SDS011;10593;48.398;10.698;2022-09-09T05:36:37;1.23;;;1.00;;
20865;SDS011;10593;48.398;10.698;2022-09-09T05:39:03;2.27;;;0.97;;
20865;SDS011;10593;48.398;10.698;2022-09-09T05:41:29;1.03;;;0.93;;
20865;SDS011;10593;48.398;10.698;2022-09-09T05:43:56;0.87;;;0.83;;
20865;SDS011;10593;48.398;10.698;2022-09-09T05:46:24;1.70;;;1.10;;
20865;SDS011;10593;48.398;10.698;2022-09-09T05:48:51;1.93;;;0.83;;
20865;SDS011;10593;48.398;10.698;2022-09-09T05:51:19;1.03;;;0.90;;
20865;SDS011;10593;48.398;10.698;2022-09-09T05:53:48;0.80;;;0.80;;
20865;SDS011;10593;48.398;10.698;2022-09-09T05:56:17;1.13;;;0.97;;
20865;SDS011;10593;48.398;10.698;2022-09-09T05:58:47;1.40;;;1.30;;
20865;SDS011;10593;48.398;10.698;2022-09-09T06:01:15;1.63;;;1.00;;
20865;SDS011;10593;48.398;10.698;2022-09-09T06:03:47;0.80;;;0.80;;
20865;SDS011;10593;48.398;10.698;2022-09-09T06:06:18;1.40;;;0.80;;
20865;SDS011;10593;48.398;10.698;2022-09-09T06:08:47;1.27;;;0.80;;
20865;SDS011;10593;48.398;10.698;2022-09-09T06:11:17;1.30;;;1.20;;
20865;SDS011;10593;48.398;10.698;2022-09-09T06:13:52;2.37;;;1.33;;
20865;SDS011;10593;48.398;10.698;2022-09-09T06:16:20;1.87;;;0.90;;
20865;SDS011;10593;48.398;10.698;2022-09-09T06:18:48;0.90;;;0.90;;
20865;SDS011;10593;48.398;10.698;2022-09-09T06:21:17;0.80;;;0.80;;
20865;SDS011;10593;48.398;10.698;2022-09-09T06:23:48;0.90;;;0.90;;
20865;SDS011;10593;48.398;10.698;2022-09-09T06:26:23;1.13;;;1.00;;
20865;SDS011;10593;48.398;10.698;2022-09-09T06:28:51;1.20;;;0.93;;
20865;SDS011;10593;48.398;10.698;2022-09-09T06:31:20;1.17;;;0.87;;
20865;SDS011;10593;48.398;10.698;2022-09-09T06:33:49;2.30;;;1.10;;
20865;SDS011;10593;48.398;10.698;2022-09-09T06:36:17;0.80;;;0.80;;
20865;SDS011;10593;48.398;10.698;2022-09-09T06:38:48;0.97;;;0.90;;
20865;SDS011;10593;48.398;10.698;2022-09-09T06:41:15;0.90;;;0.90;;
20865;SDS011;10593;48.398;10.698;2022-09-09T06:43:43;2.20;;;1.07;;
20865;SDS011;10593;48.398;10.698;2022-09-09T06:46:11;1.43;;;0.73;;
20865;SDS011;10593;48.398;10.698;2022-09-09T06:48:43;1.83;;;0.80;;
20865;SDS011;10593;48.398;10.698;2022-09-09T06:51:11;2.50;;;0.90;;
20865;SDS011;10593;48.398;10.698;2022-09-09T06:53:39;2.10;;;1.10;;
20865;SDS011;10593;48.398;10.698;2022-09-09T06:58:35;0.97;;;0.90;;
20865;SDS011;10593;48.398;10.698;2022-09-09T07:01:13;1.10;;;1.07;;
20865;SDS011;10593;48.398;10.698;2022-09-09T07:03:42;1.37;;;1.27;;
20865;SDS011;10593;48.398;10.698;2022-09-09T07:06:20;2.00;;;1.20;;
20865;SDS011;10593;48.398;10.698;2022-09-09T07:08:52;1.83;;;1.30;;
20865;SDS011;10593;48.398;10.698;2022-09-09T07:11:24;1.40;;;1.30;;
20865;SDS011;10593;48.398;10.698;2022-09-09T07:13:54;1.47;;;1.40;;
20865;SDS011;10593;48.398;10.698;2022-09-09T07:16:23;1.93;;;1.43;;
20865;SDS011;10593;48.398;10.698;2022-09-09T07:18:50;1.60;;;1.30;;
20865;SDS011;10593;48.398;10.698;2022-09-09T07:21:17;1.10;;;1.10;;
20865;SDS011;10593;48.398;10.698;2022-09-09T07:23:44;1.40;;;1.30;;
20865;SDS011;10593;48.398;10.698;2022-09-09T07:26:11;1.30;;;1.20;;
20865;SDS011;10593;48.398;10.698;2022-09-09T07:28:44;1.70;;;1.60;;
20865;SDS011;10593;48.398;10.698;2022-09-09T07:31:52;2.10;;;1.90;;
20865;SDS011;10593;48.398;10.698;2022-09-09T07:34:01;4.90;;;2.20;;
20865;SDS011;10593;48.398;10.698;2022-09-09T07:36:30;2.57;;;1.80;;
20865;SDS011;10593;48.398;10.698;2022-09-09T07:39:09;1.90;;;1.80;;
20865;SDS011;10593;48.398;10.698;2022-09-09T07:41:39;1.97;;;1.60;;
20865;SDS011;10593;48.398;10.698;2022-09-09T07:44:08;1.70;;;1.60;;
20865;SDS011;10593;48.398;10.698;2022-09-09T07:46:38;1.40;;;1.30;;
20865;SDS011;10593;48.398;10.698;2022-09-09T07:49:04;1.33;;;1.23;;
20865;SDS011;10593;48.398;10.698;2022-09-09T07:51:31;1.40;;;1.30;;
20865;SDS011;10593;48.398;10.698;2022-09-09T07:54:01;2.00;;;1.27;;
20865;SDS011;10593;48.398;10.698;2022-09-09T07:56:31;3.20;;;1.57;;
20865;SDS011;10593;48.398;10.698;2022-09-09T07:58:59;1.53;;;1.33;;
20865;SDS011;10593;48.398;10.698;2022-09-09T08:01:30;1.70;;;1.60;;
20865;SDS011;10593;48.398;10.698;2022-09-09T08:04:00;4.70;;;1.57;;
20865;SDS011;10593;48.398;10.698;2022-09-09T08:06:35;1.60;;;1.47;;
20865;SDS011;10593;48.398;10.698;2022-09-09T08:09:04;1.90;;;1.40;;
20865;SDS011;10593;48.398;10.698;2022-09-09T08:11:32;1.40;;;1.30;;
20865;SDS011;10593;48.398;10.698;2022-09-09T08:14:00;1.87;;;1.37;;
20865;SDS011;10593;48.398;10.698;2022-09-09T08:16:28;2.10;;;1.40;;
20865;SDS011;10593;48.398;10.698;2022-09-09T08:18:56;1.20;;;1.10;;
20865;SDS011;10593;48.398;10.698;2022-09-09T08:21:30;1.57;;;1.20;;
20865;SDS011;10593;48.398;10.698;2022-09-09T08:23:58;1.50;;;1.10;;
20865;SDS011;10593;48.398;10.698;2022-09-09T08:26:27;1.40;;;1.30;;
20865;SDS011;10593;48.398;10.698;2022-09-09T08:29:06;1.90;;;1.23;;
20865;SDS011;10593;48.398;10.698;2022-09-09T08:31:56;4.23;;;1.40;;
20865;SDS011;10593;48.398;10.698;2022-09-09T08:34:23;2.40;;;1.17;;
20865;SDS011;10593;48.398;10.698;2022-09-09T08:36:52;1.50;;;0.80;;
20865;SDS011;10593;48.398;10.698;2022-09-09T08:39:20;3.13;;;0.90;;
20865;SDS011;10593;48.398;10.698;2022-09-09T08:52:56;0.87;;;0.87;;
20865;SDS011;10593;48.398;10.698;2022-09-09T08:55:38;0.70;;;0.70;;
20865;SDS011;10593;48.398;10.698;2022-09-09T09:00:48;1.63;;;0.90;;
20865;SDS011;10593;48.398;10.698;2022-09-09T09:10:30;1.03;;;0.70;;
20865;SDS011;10593;48.398;10.698;2022-09-09T09:13:17;2.83;;;0.80;;
20865;SDS011;10593;48.398;10.698;2022-09-09T09:15:50;0.40;;;0.40;;
20865;SDS011;10593;48.398;10.698;2022-09-09T09:18:27;1.40;;;0.70;;
20865;SDS011;10593;48.398;10.698;2022-09-09T09:21:04;1.10;;;1.00;;
20865;SDS011;10593;48.398;10.698;2022-09-09T09:23:45;0.90;;;0.70;;
20865;SDS011;10593;48.398;10.698;2022-09-09T09:26:30;0.97;;;0.80;;
20865;SDS011;10593;48.398;10.698;2022-09-09T09:29:00;1.00;;;0.50;;
20865;SDS011;10593;48.398;10.698;2022-09-09T09:31:38;0.60;;;0.60;;
20865;SDS011;10593;48.398;10.698;2022-09-09T09:34:03;0.83;;;0.80;;
20865;SDS011;10593;48.398;10.698;2022-09-09T09:36:42;1.80;;;0.87;;
20865;SDS011;10593;48.398;10.698;2022-09-09T09:39:33;1.00;;;0.80;;
20865;SDS011;10593;48.398;10.698;2022-09-09T09:42:12;1.07;;;0.90;;
20865;SDS011;10593;48.398;10.698;2022-09-09T09:44:42;2.10;;;1.00;;
20865;SDS011;10593;48.398;10.698;2022-09-09T09:49:38;1.10;;;0.77;;
20865;SDS011;10593;48.398;10.698;2022-09-09T09:52:15;1.10;;;0.80;;
20865;SDS011;10593;48.398;10.698;2022-09-09T09:54:47;1.00;;;0.90;;
20865;SDS011;10593;48.398;10.698;2022-09-09T09:57:16;0.77;;;0.73;;
20865;SDS011;10593;48.398;10.698;2022-09-09T09:59:43;1.67;;;0.87;;
20865;SDS011;10593;48.398;10.698;2022-09-09T10:02:21;0.93;;;0.90;;
20865;SDS011;10593;48.398;10.698;2022-09-09T10:05:03;0.57;;;0.57;;
20865;SDS011;10593;48.398;10.698;2022-09-09T10:08:00;1.27;;;0.80;;
20865;SDS011;10593;48.398;10.698;2022-09-09T10:10:40;0.90;;;0.83;;
20865;SDS011;10593;48.398;10.698;2022-09-09T10:13:28;0.70;;;0.70;;
20865;SDS011;10593;48.398;10.698;2022-09-09T10:16:33;1.60;;;0.87;;
20865;SDS011;10593;48.398;10.698;2022-09-09T10:19:35;1.07;;;1.00;;
20865;SDS011;10593;48.398;10.698;2022-09-09T10:22:24;1.37;;;0.73;;
20865;SDS011;10593;48.398;10.698;2022-09-09T10:27:51;2.00;;;0.77;;
20865;SDS011;10593;48.398;10.698;2022-09-09T10:30:57;2.00;;;0.90;;
20865;SDS011;10593;48.398;10.698;2022-09-09T10:33:51;1.67;;;0.67;;
20865;SDS011;10593;48.398;10.698;2022-09-09T10:37:00;2.33;;;0.90;;
20865;SDS011;10593;48.398;10.698;2022-09-09T10:39:48;1.10;;;0.70;;
20865;SDS011;10593;48.398;10.698;2022-09-09T10:42:34;1.90;;;0.70;;
20865;SDS011;10593;48.398;10.698;2022-09-09T10:45:02;1.17;;;0.77;;
20865;SDS011;10593;48.398;10.698;2022-09-09T10:51:17;2.00;;;0.80;;
20865;SDS011;10593;48.398;10.698;2022-09-09T10:53:37;0.83;;;0.70;;
20865;SDS011;10593;48.398;10.698;2022-09-09T10:56:28;1.40;;;0.77;;
20865;SDS011;10593;48.398;10.698;2022-09-09T10:59:00;1.90;;;1.40;;
20865;SDS011;10593;48.398;10.698;2022-09-09T11:04:55;0.67;;;0.67;;
20865;SDS011;10593;48.398;10.698;2022-09-09T11:07:05;0.60;;;0.60;;
20865;SDS011;10593;48.398;10.698;2022-09-09T11:09:38;1.27;;;0.73;;
20865;SDS011;10593;48.398;10.698;2022-09-09T11:12:18;0.53;;;0.50;;
20865;SDS011;10593;48.398;10.698;2022-09-09T11:14:45;2.10;;;0.90;;
20865;SDS011;10593;48.398;10.698;2022-09-09T11:17:30;1.63;;;0.70;;
20865;SDS011;10593;48.398;10.698;2022-09-09T11:20:06;1.20;;;0.63;;
20865;SDS011;10593;48.398;10.698;2022-09-09T11:22:38;1.87;;;0.70;;
20865;SDS011;10593;48.398;10.698;2022-09-09T11:25:35;1.30;;;0.97;;
20865;SDS011;10593;48.398;10.698;2022-09-09T11:40:04;1.03;;;0.53;;
20865;SDS011;10593;48.398;10.698;2022-09-09T11:42:48;1.97;;;0.70;;
20865;SDS011;10593;48.398;10.698;2022-09-09T11:45:27;0.63;;;0.60;;
20865;SDS011;10593;48.398;10.698;2022-09-09T11:47:55;1.97;;;0.70;;
20865;SDS011;10593;48.398;10.698;2022-09-09T11:52:49;1.43;;;0.77;;
20865;SDS011;10593;48.398;10.698;2022-09-09T11:55:29;1.80;;;1.13;;
20865;SDS011;10593;48.398;10.698;2022-09-09T11:58:19;2.00;;;0.70;;
20865;SDS011;10593;48.398;10.698;2022-09-09T12:00:48;1.20;;;0.70;;
20865;SDS011;10593;48.398;10.698;2022-09-09T12:06:28;1.87;;;0.87;;
20865;SDS011;10593;48.398;10.698;2022-09-09T12:08:58;2.23;;;0.77;;
20865;SDS011;10593;48.398;10.698;2022-09-09T12:11:44;0.80;;;0.47;;
20865;SDS011;10593;48.398;10.698;2022-09-09T12:14:19;2.17;;;0.90;;
20865;SDS011;10593;48.398;10.698;2022-09-09T12:19:48;1.83;;;0.60;;
20865;SDS011;10593;48.398;10.698;2022-09-09T12:25:39;0.50;;;0.50;;
20865;SDS011;10593;48.398;10.698;2022-09-09T12:28:25;1.70;;;0.70;;
20865;SDS011;10593;48.398;10.698;2022-09-09T12:31:32;2.13;;;0.60;;
20865;SDS011;10593;48.398;10.698;2022-09-09T12:39:55;2.47;;;0.70;;
20865;SDS011;10593;48.398;10.698;2022-09-09T12:42:28;1.53;;;0.73;;
20865;SDS011;10593;48.398;10.698;2022-09-09T12:44:57;1.60;;;0.50;;
20865;SDS011;10593;48.398;10.698;2022-09-09T12:50:17;1.17;;;0.70;;
20865;SDS011;10593;48.398;10.698;2022-09-09T12:52:50;0.50;;;0.50;;
20865;SDS011;10593;48.398;10.698;2022-09-09T12:55:20;1.83;;;0.70;;
20865;SDS011;10593;48.398;10.698;2022-09-09T12:57:50;1.00;;;0.60;;
20865;SDS011;10593;48.398;10.698;2022-09-09T13:00:23;0.60;;;0.43;;
20865;SDS011;10593;48.398;10.698;2022-09-09T13:05:19;0.63;;;0.50;;
20865;SDS011;10593;48.398;10.698;2022-09-09T13:08:02;0.60;;;0.60;;
20865;SDS011;10593;48.398;10.698;2022-09-09T13:10:32;2.20;;;0.70;;
20865;SDS011;10593;48.398;10.698;2022-09-09T13:13:39;1.70;;;0.80;;
20865;SDS011;10593;48.398;10.698;2022-09-09T13:16:21;1.00;;;0.63;;
20865;SDS011;10593;48.398;10.698;2022-09-09T13:18:59;2.40;;;0.70;;
20865;SDS011;10593;48.398;10.698;2022-09-09T13:21:38;0.90;;;0.67;;
20865;SDS011;10593;48.398;10.698;2022-09-09T13:24:05;1.47;;;1.00;;
20865;SDS011;10593;48.398;10.698;2022-09-09T13:27:26;0.90;;;0.50;;
20865;SDS011;10593;48.398;10.698;2022-09-09T13:29:53;1.23;;;0.70;;
20865;SDS011;10593;48.398;10.698;2022-09-09T13:32:21;2.53;;;0.90;;
20865;SDS011;10593;48.398;10.698;2022-09-09T13:34:50;2.07;;;1.13;;
20865;SDS011;10593;48.398;10.698;2022-09-09T13:40:03;2.00;;;0.67;;
20865;SDS011;10593;48.398;10.698;2022-09-09T13:42:32;1.77;;;0.90;;
20865;SDS011;10593;48.398;10.698;2022-09-09T13:45:03;2.77;;;0.63;;
20865;SDS011;10593;48.398;10.698;2022-09-09T13:47:33;3.40;;;0.93;;
20865;SDS011;10593;48.398;10.698;2022-09-09T13:50:20;0.93;;;0.80;;
20865;SDS011;10593;48.398;10.698;2022-09-09T13:52:57;1.80;;;0.80;;
20865;SDS011;10593;48.398;10.698;2022-09-09T13:55:25;1.97;;;0.87;;
20865;SDS011;10593;48.398;10.698;2022-09-09T13:58:01;2.40;;;0.80;;
20865;SDS011;10593;48.398;10.698;2022-09-09T14:00:30;1.70;;;0.50;;
20865;SDS011;10593;48.398;10.698;2022-09-09T14:02:59;0.67;;;0.47;;
20865;SDS011;10593;48.398;10.698;2022-09-09T14:05:27;2.30;;;0.60;;
20865;SDS011;10593;48.398;10.698;2022-09-09T14:07:54;1.30;;;0.83;;
20865;SDS011;10593;48.398;10.698;2022-09-09T14:10:20;1.07;;;0.73;;
20865;SDS011;10593;48.398;10.698;2022-09-09T14:12:47;1.00;;;0.60;;
20865;SDS011;10593;48.398;10.698;2022-09-09T14:15:13;0.47;;;0.47;;
20865;SDS011;10593;48.398;10.698;2022-09-09T14:17:39;0.50;;;0.33;;
20865;SDS011;10593;48.398;10.698;2022-09-09T14:20:05;0.80;;;0.50;;
20865;SDS011;10593;48.398;10.698;2022-09-09T14:22:33;1.00;;;0.57;;
20865;SDS011;10593;48.398;10.698;2022-09-09T14:25:00;1.80;;;0.47;;
20865;SDS011;10593;48.398;10.698;2022-09-09T14:27:27;4.97;;;0.80;;
20865;SDS011;10593;48.398;10.698;2022-09-09T14:29:53;0.70;;;0.50;;
20865;SDS011;10593;48.398;10.698;2022-09-09T14:32:20;0.40;;;0.33;;
20865;SDS011;10593;48.398;10.698;2022-09-09T14:34:46;1.20;;;0.40;;
20865;SDS011;10593;48.398;10.698;2022-09-09T14:37:14;0.73;;;0.50;;
20865;SDS011;10593;48.398;10.698;2022-09-09T14:39:41;0.43;;;0.40;;
20865;SDS011;10593;48.398;10.698;2022-09-09T14:42:09;0.70;;;0.40;;
20865;SDS011;10593;48.398;10.698;2022-09-09T14:44:39;0.60;;;0.33;;
20865;SDS011;10593;48.398;10.698;2022-09-09T14:47:05;0.70;;;0.40;;
20865;SDS011;10593;48.398;10.698;2022-09-09T14:49:35;0.50;;;0.40;;
20865;SDS011;10593;48.398;10.698;2022-09-09T14:52:02;0.60;;;0.33;;
20865;SDS011;10593;48.398;10.698;2022-09-09T14:54:29;1.13;;;0.40;;
20865;SDS011;10593;48.398;10.698;2022-09-09T14:56:56;0.93;;;0.50;;
20865;SDS011;10593;48.398;10.698;2022-09-09T14:59:22;0.43;;;0.40;;
20865;SDS011;10593;48.398;10.698;2022-09-09T15:01:48;1.33;;;0.33;;
20865;SDS011;10593;48.398;10.698;2022-09-09T15:04:14;2.23;;;0.50;;
20865;SDS011;10593;48.398;10.698;2022-09-09T15:06:40;0.50;;;0.40;;
20865;SDS011;10593;48.398;10.698;2022-09-09T15:09:07;0.83;;;0.30;;
20865;SDS011;10593;48.398;10.698;2022-09-09T15:11:34;0.47;;;0.37;;
20865;SDS011;10593;48.398;10.698;2022-09-09T15:14:03;0.90;;;0.60;;
20865;SDS011;10593;48.398;10.698;2022-09-09T15:16:30;2.77;;;0.60;;
20865;SDS011;10593;48.398;10.698;2022-09-09T15:18:59;1.10;;;0.63;;
20865;SDS011;10593;48.398;10.698;2022-09-09T15:21:28;0.47;;;0.40;;
20865;SDS011;10593;48.398;10.698;2022-09-09T15:23:59;1.33;;;0.50;;
20865;SDS011;10593;48.398;10.698;2022-09-09T15:26:25;0.40;;;0.40;;
20865;SDS011;10593;48.398;10.698;2022-09-09T15:28:52;0.77;;;0.37;;
20865;SDS011;10593;48.398;10.698;2022-09-09T15:31:20;0.40;;;0.40;;
20865;SDS011;10593;48.398;10.698;2022-09-09T15:33:54;0.73;;;0.50;;
20865;SDS011;10593;48.398;10.698;2022-09-09T15:36:29;0.87;;;0.40;;
20865;SDS011;10593;48.398;10.698;2022-09-09T15:39:02;0.60;;;0.60;;
20865;SDS011;10593;48.398;10.698;2022-09-09T15:41:32;1.23;;;0.70;;
20865;SDS011;10593;48.398;10.698;2022-09-09T15:43:58;1.00;;;0.60;;
20865;SDS011;10593;48.398;10.698;2022-09-09T15:51:35;0.93;;;0.57;;
20865;SDS011;10593;48.398;10.698;2022-09-09T15:54:03;1.37;;;0.80;;
20865;SDS011;10593;48.398;10.698;2022-09-09T15:56:29;1.07;;;0.50;;
20865;SDS011;10593;48.398;10.698;2022-09-09T15:58:56;1.57;;;1.10;;
20865;SDS011;10593;48.398;10.698;2022-09-09T16:01:24;1.20;;;0.57;;
20865;SDS011;10593;48.398;10.698;2022-09-09T16:03:51;1.53;;;0.50;;
20865;SDS011;10593;48.398;10.698;2022-09-09T16:06:19;0.97;;;0.60;;
20865;SDS011;10593;48.398;10.698;2022-09-09T16:08:49;1.00;;;0.57;;
20865;SDS011;10593;48.398;10.698;2022-09-09T16:11:38;0.30;;;0.30;;
20865;SDS011;10593;48.398;10.698;2022-09-09T16:14:04;0.70;;;0.63;;
20865;SDS011;10593;48.398;10.698;2022-09-09T16:16:31;1.23;;;0.63;;
20865;SDS011;10593;48.398;10.698;2022-09-09T16:19:02;0.70;;;0.40;;
20865;SDS011;10593;48.398;10.698;2022-09-09T16:21:39;0.50;;;0.50;;
20865;SDS011;10593;48.398;10.698;2022-09-09T16:24:13;0.63;;;0.63;;
20865;SDS011;10593;48.398;10.698;2022-09-09T16:26:44;3.13;;;0.70;;
20865;SDS011;10593;48.398;10.698;2022-09-09T16:29:13;1.20;;;0.87;;
20865;SDS011;10593;48.398;10.698;2022-09-09T16:31:42;1.53;;;1.03;;
20865;SDS011;10593;48.398;10.698;2022-09-09T16:34:09;0.90;;;0.67;;
20865;SDS011;10593;48.398;10.698;2022-09-09T16:36:36;2.33;;;0.90;;
20865;SDS011;10593;48.398;10.698;2022-09-09T16:39:04;2.43;;;0.80;;
20865;SDS011;10593;48.398;10.698;2022-09-09T16:41:37;0.80;;;0.80;;
20865;SDS011;10593;48.398;10.698;2022-09-09T16:44:05;0.70;;;0.67;;
20865;SDS011;10593;48.398;10.698;2022-09-09T16:46:34;1.30;;;0.80;;
20865;SDS011;10593;48.398;10.698;2022-09-09T16:49:07;0.90;;;0.90;;
20865;SDS011;10593;48.398;10.698;2022-09-09T16:51:37;0.67;;;0.67;;
20865;SDS011;10593;48.398;10.698;2022-09-09T16:54:06;0.50;;;0.50;;
20865;SDS011;10593;48.398;10.698;2022-09-09T16:56:36;1.17;;;0.73;;
20865;SDS011;10593;48.398;10.698;2022-09-09T16:59:08;0.80;;;0.80;;
20865;SDS011;10593;48.398;10.698;2022-09-09T17:01:41;0.83;;;0.70;;